createdAt,value
2018-12-29T00:02:12.765Z,17.97
2018-12-29T00:04:40.006Z,22.80
2018-12-29T00:07:07.300Z,19.03
2018-12-29T00:09:34.559Z,22.47
2018-12-29T00:12:01.854Z,21.43
2018-12-29T00:14:29.110Z,22.90
2018-12-29T00:16:56.375Z,22.43
2018-12-29T00:19:23.648Z,26.40
2018-12-29T00:21:50.923Z,26.40
2018-12-29T00:24:18.203Z,27.20
2018-12-29T00:26:45.466Z,19.20
2018-12-29T00:29:12.739Z,19.83
2018-12-29T00:31:39.995Z,27.07
2018-12-29T00:34:07.251Z,22.87
2018-12-29T00:36:34.532Z,18.93
2018-12-29T00:39:01.791Z,23.63
2018-12-29T00:41:29.080Z,23.30
2018-12-29T00:43:56.353Z,24.17
2018-12-29T00:46:23.626Z,30.80
2018-12-29T00:48:50.910Z,24.63
2018-12-29T00:51:18.186Z,22.67
2018-12-29T00:53:45.451Z,19.43
2018-12-29T00:56:12.746Z,22.23
2018-12-29T00:58:40.026Z,24.03
2018-12-29T01:01:07.306Z,20.23
2018-12-29T01:03:34.570Z,25.83
2018-12-29T01:06:01.879Z,24.50
2018-12-29T01:08:29.167Z,27.10
2018-12-29T01:10:56.430Z,29.43
2018-12-29T01:13:23.697Z,27.73
2018-12-29T01:15:50.952Z,23.63
2018-12-29T01:18:18.241Z,28.60
2018-12-29T01:20:45.491Z,24.37
2018-12-29T01:23:12.786Z,28.40
2018-12-29T01:25:40.031Z,26.67
2018-12-29T01:28:07.322Z,27.63
2018-12-29T01:30:34.582Z,29.03
2018-12-29T01:33:01.891Z,28.47
2018-12-29T01:35:29.211Z,30.93
2018-12-29T01:37:56.459Z,25.23
2018-12-29T01:40:23.734Z,26.93
2018-12-29T01:42:51.000Z,28.83
2018-12-29T01:45:18.329Z,31.90
2018-12-29T01:47:47.000Z,32.90
2018-12-29T01:50:14.606Z,31.03
2018-12-29T01:52:41.881Z,27.77
2018-12-29T01:55:09.139Z,31.53
2018-12-29T01:57:36.418Z,32.43
2018-12-29T02:00:04.159Z,38.20
2018-12-29T02:02:31.552Z,34.60
2018-12-29T02:04:58.814Z,29.50
2018-12-29T02:07:26.097Z,27.77
2018-12-29T02:09:53.435Z,32.67
2018-12-29T02:12:20.703Z,41.37
2018-12-29T02:14:47.966Z,31.57
2018-12-29T02:17:15.250Z,36.90
2018-12-29T02:19:42.518Z,34.73
2018-12-29T02:22:09.775Z,30.07
2018-12-29T02:24:37.058Z,37.67
2018-12-29T02:27:04.351Z,34.20
2018-12-29T02:29:31.642Z,37.20
2018-12-29T02:31:58.889Z,33.97
2018-12-29T02:34:26.137Z,42.33
2018-12-29T02:36:53.432Z,32.23
2018-12-29T02:39:20.690Z,31.40
2018-12-29T02:41:47.950Z,35.17
2018-12-29T02:44:15.259Z,47.27
2018-12-29T02:46:42.524Z,30.77
2018-12-29T02:49:09.803Z,40.07
2018-12-29T02:51:37.088Z,38.27
2018-12-29T02:54:04.346Z,34.37
2018-12-29T02:56:31.635Z,36.93
2018-12-29T02:58:58.892Z,43.03
2018-12-29T03:01:26.204Z,34.73
2018-12-29T03:03:53.537Z,35.10
2018-12-29T03:06:20.786Z,35.53
2018-12-29T03:08:48.039Z,45.53
2018-12-29T03:11:15.299Z,35.47
2018-12-29T03:13:42.563Z,39.60
2018-12-29T03:16:09.831Z,36.60
2018-12-29T03:18:37.096Z,36.10
2018-12-29T03:21:04.384Z,31.53
2018-12-29T03:23:31.663Z,38.53
2018-12-29T03:25:58.915Z,36.07
2018-12-29T03:28:26.186Z,36.97
2018-12-29T03:30:53.453Z,35.20
2018-12-29T03:33:20.736Z,39.67
2018-12-29T03:35:48.055Z,37.47
2018-12-29T03:38:15.331Z,34.23
2018-12-29T03:40:42.608Z,38.23
2018-12-29T03:43:09.871Z,34.03
2018-12-29T03:45:37.142Z,41.07
2018-12-29T03:48:04.405Z,39.50
2018-12-29T03:50:31.666Z,40.30
2018-12-29T03:52:58.955Z,37.73
2018-12-29T03:55:26.209Z,39.30
2018-12-29T03:57:53.475Z,36.70
2018-12-29T04:00:20.762Z,32.97
2018-12-29T04:02:48.031Z,37.90
2018-12-29T04:05:15.322Z,32.67
2018-12-29T04:07:42.574Z,33.87
2018-12-29T04:10:11.396Z,34.00
2018-12-29T04:12:38.728Z,34.00
2018-12-29T04:15:06.017Z,35.50
2018-12-29T04:17:33.267Z,40.67
2018-12-29T04:20:00.567Z,33.00
2018-12-29T04:22:27.850Z,34.10
2018-12-29T04:24:55.123Z,36.53
2018-12-29T04:27:22.384Z,39.90
2018-12-29T04:29:49.643Z,33.00
2018-12-29T04:32:16.894Z,30.50
2018-12-29T04:34:44.168Z,25.63
2018-12-29T04:37:11.435Z,33.43
2018-12-29T04:39:38.686Z,29.37
2018-12-29T04:42:05.951Z,27.60
2018-12-29T04:44:33.290Z,28.43
2018-12-29T04:47:00.567Z,29.90
2018-12-29T04:49:27.815Z,28.37
2018-12-29T04:51:55.115Z,27.63
2018-12-29T04:54:22.354Z,28.43
2018-12-29T04:56:49.638Z,23.60
2018-12-29T04:59:16.886Z,25.87
2018-12-29T05:01:44.160Z,30.30
2018-12-29T05:04:11.423Z,25.77
2018-12-29T05:06:38.710Z,26.50
2018-12-29T05:09:07.555Z,27.63
2018-12-29T05:11:34.826Z,29.73
2018-12-29T05:14:02.102Z,26.80
2018-12-29T05:16:29.348Z,24.43
2018-12-29T05:18:56.627Z,24.53
2018-12-29T05:21:23.894Z,25.23
2018-12-29T05:23:51.187Z,19.40
2018-12-29T05:26:18.450Z,29.77
2018-12-29T05:28:45.742Z,23.47
2018-12-29T05:31:12.986Z,17.53
2018-12-29T05:33:40.274Z,21.20
2018-12-29T05:36:07.519Z,18.33
2018-12-29T05:38:34.789Z,16.20
2018-12-29T05:41:02.030Z,16.83
2018-12-29T05:43:29.314Z,17.67
2018-12-29T05:45:56.575Z,16.63
2018-12-29T05:48:23.882Z,17.33
2018-12-29T05:50:51.159Z,18.60
2018-12-29T05:53:18.411Z,22.03
2018-12-29T05:55:45.682Z,21.13
2018-12-29T05:58:12.984Z,29.67
2018-12-29T06:00:40.296Z,31.47
2018-12-29T06:03:07.616Z,29.63
2018-12-29T06:05:34.895Z,26.37
2018-12-29T06:08:02.135Z,29.77
2018-12-29T06:10:29.422Z,24.77
2018-12-29T06:12:56.706Z,29.63
2018-12-29T06:15:23.979Z,26.97
2018-12-29T06:17:51.239Z,26.07
2018-12-29T06:20:18.518Z,20.20
2018-12-29T06:22:45.770Z,26.83
2018-12-29T06:25:13.065Z,27.67
2018-12-29T06:27:40.338Z,18.90
2018-12-29T06:30:07.606Z,23.30
2018-12-29T06:32:34.866Z,17.93
2018-12-29T06:35:02.131Z,24.93
2018-12-29T06:37:29.371Z,18.97
2018-12-29T06:39:56.690Z,25.90
2018-12-29T06:42:23.954Z,18.87
2018-12-29T06:44:51.240Z,21.50
2018-12-29T06:47:18.497Z,20.10
2018-12-29T06:49:45.759Z,19.17
2018-12-29T06:52:13.019Z,21.03
2018-12-29T06:54:40.300Z,22.13
2018-12-29T06:57:07.582Z,20.17
2018-12-29T06:59:34.826Z,18.33
2018-12-29T07:02:03.753Z,16.70
2018-12-29T07:04:31.035Z,21.17
2018-12-29T07:06:58.290Z,15.27
2018-12-29T07:09:25.558Z,16.17
2018-12-29T07:11:52.833Z,18.07
2018-12-29T07:14:20.103Z,14.90
2018-12-29T07:16:47.367Z,13.77
2018-12-29T07:19:14.635Z,17.00
2018-12-29T07:21:41.910Z,20.53
2018-12-29T07:24:09.190Z,18.43
2018-12-29T07:26:36.463Z,22.17
2018-12-29T07:29:04.225Z,18.70
2018-12-29T07:31:32.743Z,18.43
2018-12-29T07:34:00.010Z,24.27
2018-12-29T07:36:27.278Z,21.27
2018-12-29T07:38:54.558Z,23.30
2018-12-29T07:41:21.883Z,30.10
2018-12-29T07:43:49.150Z,27.07
2018-12-29T07:46:16.450Z,24.13
2018-12-29T07:48:43.767Z,21.87
2018-12-29T07:51:11.062Z,27.17
2018-12-29T07:53:38.396Z,31.17
2018-12-29T07:56:05.680Z,25.10
2018-12-29T07:58:32.954Z,24.13
2018-12-29T08:01:00.247Z,25.30
2018-12-29T08:03:27.530Z,26.03
2018-12-29T08:05:54.795Z,23.57
2018-12-29T08:08:22.142Z,27.00
2018-12-29T08:10:49.411Z,22.90
2018-12-29T08:13:16.698Z,28.47
2018-12-29T08:15:43.997Z,21.17
2018-12-29T08:18:11.263Z,28.67
2018-12-29T08:20:38.558Z,32.87
2018-12-29T08:23:05.844Z,25.90
2018-12-29T08:25:33.107Z,25.40
2018-12-29T08:28:00.378Z,19.97
2018-12-29T08:30:27.658Z,27.90
2018-12-29T08:32:54.941Z,30.97
2018-12-29T08:35:22.203Z,19.07
2018-12-29T08:37:49.478Z,25.03
2018-12-29T08:40:16.756Z,26.67
2018-12-29T08:42:43.999Z,20.33
2018-12-29T08:45:11.278Z,21.90
2018-12-29T08:47:38.518Z,24.17
2018-12-29T08:50:13.069Z,26.27
2018-12-29T08:52:36.320Z,18.03
2018-12-29T08:55:03.644Z,21.13
2018-12-29T08:57:30.932Z,16.60
2018-12-29T08:59:58.198Z,26.07
2018-12-29T09:02:25.482Z,23.37
2018-12-29T09:04:52.727Z,24.23
2018-12-29T09:07:19.986Z,20.77
2018-12-29T09:09:47.283Z,21.23
2018-12-29T09:12:14.554Z,22.97
2018-12-29T09:14:41.833Z,20.57
2018-12-29T09:17:12.159Z,15.97
2018-12-29T09:19:38.070Z,26.73
2018-12-29T09:22:05.346Z,19.80
2018-12-29T09:24:32.592Z,26.37
2018-12-29T09:26:59.975Z,18.80
2018-12-29T09:29:27.238Z,13.13
2018-12-29T09:31:54.502Z,19.63
2018-12-29T09:34:22.558Z,14.00
2018-12-29T09:36:50.736Z,24.23
2018-12-29T09:39:18.019Z,22.23
2018-12-29T09:41:45.270Z,21.67
2018-12-29T09:44:12.546Z,14.60
2018-12-29T09:46:39.796Z,16.83
2018-12-29T09:49:07.072Z,18.37
2018-12-29T09:51:34.325Z,19.13
2018-12-29T09:54:01.592Z,20.87
2018-12-29T09:56:28.866Z,18.53
2018-12-29T09:58:56.160Z,25.87
2018-12-29T10:01:23.440Z,16.33
2018-12-29T10:03:50.783Z,17.77
2018-12-29T10:06:18.039Z,22.17
2018-12-29T10:08:45.301Z,19.37
2018-12-29T10:11:12.594Z,26.57
2018-12-29T10:13:39.860Z,22.07
2018-12-29T10:16:07.125Z,29.33
2018-12-29T10:18:34.393Z,21.97
2018-12-29T10:21:01.644Z,25.07
2018-12-29T10:23:28.903Z,16.63
2018-12-29T10:25:56.151Z,12.80
2018-12-29T10:28:23.408Z,16.20
2018-12-29T10:30:50.665Z,17.17
2018-12-29T10:33:17.937Z,18.33
2018-12-29T10:35:45.202Z,21.70
2018-12-29T10:38:12.467Z,11.43
2018-12-29T10:40:39.719Z,20.10
2018-12-29T10:43:07.009Z,16.87
2018-12-29T10:45:34.274Z,18.20
2018-12-29T10:48:01.541Z,16.67
2018-12-29T10:50:28.813Z,24.93
2018-12-29T10:52:56.057Z,21.23
2018-12-29T10:55:23.338Z,23.20
2018-12-29T10:57:50.603Z,26.13
2018-12-29T11:00:17.875Z,22.47
2018-12-29T11:02:45.147Z,30.07
2018-12-29T11:05:12.406Z,31.77
2018-12-29T11:07:39.700Z,26.33
2018-12-29T11:10:06.970Z,23.40
2018-12-29T11:12:34.235Z,26.20
2018-12-29T11:15:01.518Z,29.13
2018-12-29T11:17:28.852Z,35.53
2018-12-29T11:19:56.103Z,30.10
2018-12-29T11:22:23.383Z,33.27
2018-12-29T11:24:50.626Z,20.67
2018-12-29T11:27:17.915Z,26.37
2018-12-29T11:29:45.259Z,37.17
2018-12-29T11:32:12.596Z,30.17
2018-12-29T11:34:39.864Z,30.83
2018-12-29T11:37:07.133Z,32.80
2018-12-29T11:39:34.379Z,35.27
2018-12-29T11:42:01.656Z,28.60
2018-12-29T11:44:28.909Z,43.50
2018-12-29T11:46:56.185Z,29.90
2018-12-29T11:49:23.462Z,41.23
2018-12-29T11:51:50.728Z,34.87
2018-12-29T11:54:18.034Z,28.83
2018-12-29T11:56:45.335Z,39.57
2018-12-29T11:59:12.582Z,44.13
2018-12-29T12:01:39.883Z,42.30
2018-12-29T12:04:07.135Z,36.23
2018-12-29T12:06:34.403Z,68.70
2018-12-29T12:09:01.666Z,67.87
2018-12-29T12:11:30.715Z,64.57
2018-12-29T12:13:58.018Z,56.10
2018-12-29T12:16:25.374Z,64.73
2018-12-29T12:18:52.707Z,62.50
2018-12-29T12:21:19.987Z,60.03
2018-12-29T12:23:47.338Z,58.03
2018-12-29T12:26:14.610Z,49.60
2018-12-29T12:28:41.879Z,59.37
2018-12-29T12:31:09.241Z,46.77
2018-12-29T12:33:36.600Z,50.83
2018-12-29T12:36:03.963Z,46.83
2018-12-29T12:38:31.284Z,38.27
2018-12-29T12:40:58.557Z,49.60
2018-12-29T12:43:25.887Z,38.60
2018-12-29T12:45:54.904Z,39.93
2018-12-29T12:48:22.254Z,45.70
2018-12-29T12:50:51.233Z,38.00
2018-12-29T12:53:18.583Z,40.47
2018-12-29T12:55:47.770Z,44.53
2018-12-29T12:58:16.718Z,40.17
2018-12-29T13:00:45.725Z,48.43
2018-12-29T13:03:13.377Z,39.20
2018-12-29T13:05:40.658Z,31.17
2018-12-29T13:08:07.906Z,38.97
2018-12-29T13:10:35.199Z,37.37
2018-12-29T13:13:02.546Z,28.97
2018-12-29T13:15:29.860Z,31.63
2018-12-29T13:17:57.198Z,32.13
2018-12-29T13:20:26.194Z,25.70
2018-12-29T13:22:53.538Z,31.80
2018-12-29T13:25:20.879Z,26.03
2018-12-29T13:27:48.147Z,34.90
2018-12-29T13:30:15.438Z,26.97
2018-12-29T13:32:42.771Z,35.93
2018-12-29T13:35:10.043Z,35.10
2018-12-29T13:37:37.330Z,28.60
2018-12-29T13:40:06.182Z,34.80
2018-12-29T13:42:33.446Z,26.77
2018-12-29T13:45:01.311Z,39.13
2018-12-29T13:47:28.843Z,38.67
2018-12-29T13:49:56.111Z,30.43
2018-12-29T13:52:23.383Z,31.40
2018-12-29T13:54:50.660Z,31.00
2018-12-29T13:57:17.945Z,32.43
2018-12-29T13:59:45.275Z,48.07
2018-12-29T14:02:12.627Z,40.37
2018-12-29T14:04:39.875Z,49.73
2018-12-29T14:07:07.126Z,37.50
2018-12-29T14:09:34.493Z,46.47
2018-12-29T14:12:01.841Z,50.27
2018-12-29T14:14:29.123Z,39.70
2018-12-29T14:16:56.391Z,44.37
2018-12-29T14:19:23.741Z,45.37
2018-12-29T14:21:51.006Z,40.03
2018-12-29T14:24:18.280Z,37.07
2018-12-29T14:26:47.255Z,34.43
2018-12-29T14:29:14.506Z,45.87
2018-12-29T14:31:41.814Z,42.10
2018-12-29T14:34:09.146Z,36.93
2018-12-29T14:36:36.440Z,45.03
2018-12-29T14:39:05.298Z,36.73
2018-12-29T14:41:32.554Z,47.53
2018-12-29T14:43:59.902Z,37.97
2018-12-29T14:46:27.170Z,36.27
2018-12-29T14:48:54.446Z,30.00
2018-12-29T14:51:21.713Z,36.40
2018-12-29T14:53:48.985Z,24.40
2018-12-29T14:56:16.250Z,22.57
2018-12-29T14:58:43.512Z,26.37
2018-12-29T15:01:10.763Z,21.37
2018-12-29T15:03:38.046Z,24.37
2018-12-29T15:06:05.590Z,20.80
2018-12-29T15:08:32.882Z,25.00
2018-12-29T15:11:00.158Z,17.50
2018-12-29T15:13:29.170Z,22.73
2018-12-29T15:15:56.487Z,18.43
2018-12-29T15:18:24.141Z,19.50
2018-12-29T15:20:53.096Z,29.90
2018-12-29T15:23:20.390Z,15.80
2018-12-29T15:25:47.739Z,27.70
2018-12-29T15:28:15.110Z,16.37
2018-12-29T15:30:44.071Z,22.33
2018-12-29T15:33:11.414Z,24.47
2018-12-29T15:35:38.770Z,25.53
2018-12-29T15:38:07.815Z,22.90
2018-12-29T15:40:35.143Z,25.23
2018-12-29T15:43:02.406Z,22.07
2018-12-29T15:45:30.470Z,19.37
2018-12-29T15:47:57.795Z,21.60
2018-12-29T15:50:25.084Z,18.43
2018-12-29T15:52:54.061Z,23.20
2018-12-29T15:55:21.438Z,20.40
2018-12-29T15:57:48.698Z,16.13
2018-12-29T16:00:16.029Z,19.83
2018-12-29T16:02:43.429Z,19.43
2018-12-29T16:05:10.783Z,13.70
2018-12-29T16:07:39.765Z,14.33
2018-12-29T16:10:07.178Z,19.10
2018-12-29T16:12:34.525Z,14.77
2018-12-29T16:15:01.764Z,9.13
2018-12-29T16:17:29.119Z,18.50
2018-12-29T16:19:58.110Z,16.00
2018-12-29T16:22:25.450Z,13.30
2018-12-29T16:24:52.796Z,15.80
2018-12-29T16:27:20.139Z,15.43
2018-12-29T16:29:47.498Z,12.83
2018-12-29T16:32:14.853Z,17.50
2018-12-29T16:34:42.114Z,16.60
2018-12-29T16:37:09.452Z,18.03
2018-12-29T16:39:38.378Z,15.57
2018-12-29T16:42:05.669Z,17.43
2018-12-29T16:44:32.931Z,14.03
2018-12-29T16:47:00.198Z,21.97
2018-12-29T16:49:28.246Z,16.37
2018-12-29T16:51:55.590Z,21.27
2018-12-29T16:54:22.865Z,14.27
2018-12-29T16:56:50.228Z,21.50
2018-12-29T16:59:17.491Z,14.50
2018-12-29T17:01:44.858Z,14.17
2018-12-29T17:04:13.805Z,19.80
2018-12-29T17:06:41.168Z,19.13
2018-12-29T17:09:08.481Z,15.60
2018-12-29T17:11:35.825Z,30.27
2018-12-29T17:14:03.206Z,17.07
2018-12-29T17:16:30.947Z,21.77
2018-12-29T17:18:58.286Z,12.87
2018-12-29T17:21:25.565Z,22.60
2018-12-29T17:23:52.889Z,20.10
2018-12-29T17:26:20.248Z,17.43
2018-12-29T17:28:47.587Z,20.37
2018-12-29T17:31:16.593Z,18.40
2018-12-29T17:33:43.996Z,16.17
2018-12-29T17:36:11.273Z,20.73
2018-12-29T17:38:38.681Z,26.13
2018-12-29T17:41:07.615Z,15.83
2018-12-29T17:43:34.866Z,25.33
2018-12-29T17:46:02.225Z,24.47
2018-12-29T17:48:29.578Z,20.40
2018-12-29T17:50:56.840Z,24.80
2018-12-29T17:53:25.867Z,20.43
2018-12-29T17:55:54.032Z,18.43
2018-12-29T17:58:21.326Z,20.50
2018-12-29T18:00:48.642Z,18.90
2018-12-29T18:03:15.974Z,19.70
2018-12-29T18:05:43.307Z,20.40
2018-12-29T18:08:10.646Z,26.57
2018-12-29T18:10:37.912Z,27.83
2018-12-29T18:13:05.271Z,16.27
2018-12-29T18:15:32.598Z,22.63
2018-12-29T18:17:59.875Z,18.27
2018-12-29T18:20:27.234Z,19.90
2018-12-29T18:22:54.585Z,19.43
2018-12-29T18:25:21.937Z,28.73
2018-12-29T18:27:49.183Z,16.40
2018-12-29T18:30:16.454Z,20.23
2018-12-29T18:32:43.801Z,22.27
2018-12-29T18:35:11.152Z,23.57
2018-12-29T18:37:38.509Z,23.93
2018-12-29T18:40:07.505Z,16.53
2018-12-29T18:42:34.780Z,17.83
2018-12-29T18:45:02.114Z,22.50
2018-12-29T18:47:29.403Z,22.43
2018-12-29T18:49:56.714Z,29.53
2018-12-29T18:52:25.714Z,22.33
2018-12-29T18:54:52.969Z,28.47
2018-12-29T18:57:20.303Z,19.47
2018-12-29T18:59:47.644Z,22.93
2018-12-29T19:02:15.366Z,20.57
2018-12-29T19:04:42.994Z,30.60
2018-12-29T19:07:10.263Z,24.10
2018-12-29T19:09:37.624Z,21.63
2018-12-29T19:12:11.085Z,16.87
2018-12-29T19:14:33.973Z,29.67
2018-12-29T19:17:02.970Z,23.77
2018-12-29T19:19:31.928Z,22.73
2018-12-29T19:21:59.275Z,26.30
2018-12-29T19:24:26.638Z,28.30
2018-12-29T19:26:53.978Z,26.70
2018-12-29T19:29:21.310Z,22.40
2018-12-29T19:31:48.574Z,21.20
2018-12-29T19:34:17.560Z,23.20
2018-12-29T19:36:44.874Z,21.73
2018-12-29T19:39:13.889Z,22.53
2018-12-29T19:41:46.544Z,21.93
2018-12-29T19:44:10.199Z,16.63
2018-12-29T19:46:39.167Z,19.50
2018-12-29T19:49:06.430Z,28.17
2018-12-29T19:51:33.786Z,21.20
2018-12-29T19:54:01.063Z,18.33
2018-12-29T19:56:28.398Z,24.37
2018-12-29T19:58:57.426Z,21.07
2018-12-29T20:01:24.678Z,17.77
2018-12-29T20:03:53.661Z,14.77
2018-12-29T20:06:20.951Z,21.03
2018-12-29T20:08:48.202Z,22.73
2018-12-29T20:11:15.531Z,27.67
2018-12-29T20:13:42.800Z,18.30
2018-12-29T20:16:10.167Z,28.83
2018-12-29T20:18:37.435Z,25.47
2018-12-29T20:21:06.062Z,20.10
2018-12-29T20:23:33.751Z,22.87
2018-12-29T20:26:01.037Z,24.20
2018-12-29T20:28:28.291Z,27.63
2018-12-29T20:30:55.554Z,25.17
2018-12-29T20:33:24.538Z,17.07
2018-12-29T20:35:52.061Z,17.33
2018-12-29T20:38:20.809Z,23.27
2018-12-29T20:40:48.179Z,23.27
2018-12-29T20:43:15.520Z,23.37
2018-12-29T20:45:42.847Z,18.90
2018-12-29T20:48:11.866Z,24.87
2018-12-29T20:50:39.206Z,29.00
2018-12-29T20:53:06.566Z,21.87
2018-12-29T20:55:33.922Z,23.90
2018-12-29T20:58:01.255Z,15.67
2018-12-29T21:00:28.504Z,29.00
2018-12-29T21:02:57.514Z,30.73
2018-12-29T21:05:25.715Z,20.23
2018-12-29T21:07:53.848Z,22.33
2018-12-29T21:10:21.123Z,22.73
2018-12-29T21:12:48.454Z,26.00
2018-12-29T21:15:15.803Z,23.23
2018-12-29T21:17:43.742Z,20.30
2018-12-29T21:20:17.281Z,29.17
2018-12-29T21:22:39.979Z,15.23
2018-12-29T21:25:07.234Z,23.17
2018-12-29T21:27:35.474Z,15.50
2018-12-29T21:30:02.734Z,22.43
2018-12-29T21:32:30.075Z,23.43
2018-12-29T21:34:57.437Z,22.23
2018-12-29T21:37:24.768Z,27.57
2018-12-29T21:39:52.099Z,21.20
2018-12-29T21:42:19.358Z,22.53
2018-12-29T21:44:46.646Z,25.90
2018-12-29T21:47:14.690Z,24.40
2018-12-29T21:49:41.949Z,19.33
2018-12-29T21:52:09.226Z,20.40
2018-12-29T21:54:36.566Z,24.10
2018-12-29T21:57:03.818Z,23.63
2018-12-29T21:59:31.080Z,24.97
2018-12-29T22:02:00.109Z,25.70
2018-12-29T22:04:27.446Z,17.27
2018-12-29T22:06:54.787Z,22.40
2018-12-29T22:09:22.056Z,27.33
2018-12-29T22:11:49.326Z,19.60
2018-12-29T22:14:16.665Z,23.27
2018-12-29T22:16:45.714Z,24.37
2018-12-29T22:19:13.046Z,20.83
2018-12-29T22:21:40.376Z,22.93
2018-12-29T22:24:07.735Z,18.00
2018-12-29T22:26:34.994Z,18.60
2018-12-29T22:29:03.816Z,22.57
2018-12-29T22:31:31.307Z,22.17
2018-12-29T22:33:58.574Z,29.73
2018-12-29T22:36:27.139Z,22.43
2018-12-29T22:38:54.910Z,24.60
2018-12-29T22:41:22.258Z,24.60
2018-12-29T22:43:49.612Z,25.80
2018-12-29T22:46:17.650Z,21.23
2018-12-29T22:48:44.917Z,27.40
2018-12-29T22:51:12.194Z,26.63
2018-12-29T22:53:39.438Z,21.73
2018-12-29T22:56:06.763Z,26.27
2018-12-29T22:58:34.095Z,30.77
2018-12-29T23:01:03.143Z,18.57
2018-12-29T23:03:32.112Z,27.57
2018-12-29T23:05:59.447Z,23.13
2018-12-29T23:08:26.774Z,22.93
2018-12-29T23:10:55.793Z,20.77
2018-12-29T23:13:23.119Z,25.13
2018-12-29T23:15:50.454Z,22.07
2018-12-29T23:18:17.742Z,17.63
2018-12-29T23:20:49.067Z,21.47
2018-12-29T23:23:15.709Z,20.40
2018-12-29T23:25:44.678Z,20.43
2018-12-29T23:28:12.038Z,22.53
2018-12-29T23:30:39.409Z,19.97
2018-12-29T23:33:06.748Z,21.83
2018-12-29T23:35:34.086Z,21.33
2018-12-29T23:38:03.090Z,18.40
2018-12-29T23:40:30.463Z,23.93
2018-12-29T23:42:57.774Z,19.77
2018-12-29T23:45:25.133Z,26.20
2018-12-29T23:47:52.485Z,29.83
2018-12-29T23:50:19.799Z,23.47
2018-12-29T23:52:48.797Z,22.53
2018-12-29T23:55:17.782Z,24.40
2018-12-29T23:57:45.133Z,23.23
